createdAt,value
2023-04-14T00:02:10.621Z,100.00
2023-04-14T00:04:37.675Z,100.00
2023-04-14T00:07:04.607Z,100.00
2023-04-14T00:09:31.456Z,100.00
2023-04-14T00:11:58.332Z,100.00
2023-04-14T00:14:25.252Z,100.00
2023-04-14T00:16:52.126Z,100.00
2023-04-14T00:19:18.971Z,100.00
2023-04-14T00:21:45.812Z,100.00
2023-04-14T00:24:12.637Z,100.00
2023-04-14T00:26:39.514Z,100.00
2023-04-14T00:29:06.369Z,100.00
2023-04-14T00:31:33.319Z,100.00
2023-04-14T00:34:00.156Z,100.00
2023-04-14T00:36:27.052Z,100.00
2023-04-14T00:38:53.860Z,100.00
2023-04-14T00:41:20.661Z,100.00
2023-04-14T00:43:47.505Z,100.00
2023-04-14T00:46:17.191Z,100.00
2023-04-14T00:48:44.565Z,100.00
2023-04-14T00:51:12.062Z,100.00
2023-04-14T00:53:39.974Z,100.00
2023-04-14T00:56:08.169Z,100.00
2023-04-14T00:58:35.843Z,100.00
2023-04-14T01:01:02.997Z,100.00
2023-04-14T01:03:29.949Z,100.00
2023-04-14T01:05:56.960Z,100.00
2023-04-14T01:08:25.033Z,100.00
2023-04-14T01:11:10.153Z,100.00
2023-04-14T01:13:55.530Z,100.00
2023-04-14T01:16:32.087Z,100.00
2023-04-14T01:19:32.696Z,100.00
2023-04-14T01:22:05.779Z,100.00
2023-04-14T01:25:23.813Z,100.00
2023-04-14T01:28:04.700Z,100.00
2023-04-14T01:30:52.679Z,100.00
2023-04-14T01:33:23.926Z,100.00
2023-04-14T01:35:57.302Z,100.00
2023-04-14T01:38:35.990Z,100.00
2023-04-14T01:41:09.558Z,100.00
2023-04-14T01:43:43.968Z,100.00
2023-04-14T01:46:16.039Z,100.00
2023-04-14T01:48:43.605Z,100.00
2023-04-14T01:51:12.108Z,100.00
2023-04-14T01:53:42.961Z,100.00
2023-04-14T01:56:12.912Z,100.00
2023-04-14T01:58:41.472Z,100.00
2023-04-14T02:01:08.660Z,100.00
2023-04-14T02:03:37.229Z,100.00
2023-04-14T02:06:06.372Z,100.00
2023-04-14T02:08:34.260Z,100.00
2023-04-14T02:11:03.060Z,100.00
2023-04-14T02:13:32.147Z,100.00
2023-04-14T02:16:00.850Z,100.00
2023-04-14T02:18:29.824Z,100.00
2023-04-14T02:20:59.360Z,100.00
2023-04-14T02:23:26.216Z,100.00
2023-04-14T02:26:01.628Z,100.00
2023-04-14T02:28:32.541Z,100.00
2023-04-14T02:31:06.034Z,100.00
2023-04-14T02:33:36.899Z,100.00
2023-04-14T02:36:14.417Z,100.00
2023-04-14T02:38:54.058Z,100.00
2023-04-14T02:41:26.177Z,100.00
2023-04-14T02:44:19.293Z,100.00
2023-04-14T02:47:09.949Z,100.00
2023-04-14T02:49:40.366Z,100.00
2023-04-14T02:52:11.158Z,100.00
2023-04-14T02:54:41.599Z,100.00
2023-04-14T02:57:09.057Z,100.00
2023-04-14T02:59:37.039Z,100.00
2023-04-14T03:02:06.115Z,100.00
2023-04-14T03:04:35.268Z,100.00
2023-04-14T03:07:05.525Z,100.00
2023-04-14T03:09:32.934Z,100.00
2023-04-14T03:12:03.075Z,100.00
2023-04-14T03:14:31.386Z,100.00
2023-04-14T03:16:59.983Z,100.00
2023-04-14T03:19:28.140Z,100.00
2023-04-14T03:21:57.920Z,100.00
2023-04-14T03:24:28.482Z,100.00
2023-04-14T03:27:01.803Z,100.00
2023-04-14T03:29:45.667Z,100.00
2023-04-14T03:32:15.330Z,100.00
2023-04-14T03:34:44.085Z,100.00
2023-04-14T03:37:11.987Z,100.00
2023-04-14T03:39:39.651Z,100.00
2023-04-14T03:42:13.692Z,100.00
2023-04-14T03:44:46.257Z,100.00
2023-04-14T03:47:14.504Z,100.00
2023-04-14T03:49:43.724Z,100.00
2023-04-14T03:52:13.679Z,100.00
2023-04-14T03:54:43.115Z,100.00
2023-04-14T03:57:12.198Z,100.00
2023-04-14T03:59:39.967Z,100.00
2023-04-14T04:02:09.231Z,100.00
2023-04-14T04:04:37.241Z,100.00
2023-04-14T04:07:05.277Z,100.00
2023-04-14T04:09:35.134Z,100.00
2023-04-14T04:12:03.517Z,100.00
2023-04-14T04:14:32.895Z,100.00
2023-04-14T04:17:05.275Z,100.00
2023-04-14T04:19:34.572Z,100.00
2023-04-14T04:22:03.450Z,100.00
2023-04-14T04:24:40.225Z,100.00
2023-04-14T04:27:14.386Z,100.00
2023-04-14T04:29:48.797Z,100.00
2023-04-14T04:32:15.827Z,100.00
2023-04-14T04:34:43.506Z,100.00
2023-04-14T04:37:11.004Z,100.00
2023-04-14T04:39:37.876Z,100.00
2023-04-14T04:42:06.760Z,100.00
2023-04-14T04:44:34.892Z,100.00
2023-04-14T04:47:02.488Z,100.00
2023-04-14T04:49:29.378Z,100.00
2023-04-14T04:51:59.726Z,100.00
2023-04-14T04:54:27.165Z,100.00
2023-04-14T04:56:54.109Z,100.00
2023-04-14T04:59:20.986Z,100.00
2023-04-14T05:01:47.914Z,100.00
2023-04-14T05:04:15.000Z,100.00
2023-04-14T05:06:42.032Z,100.00
2023-04-14T05:09:09.266Z,100.00
2023-04-14T05:11:36.602Z,100.00
2023-04-14T05:14:03.559Z,100.00
2023-04-14T05:16:30.453Z,100.00
2023-04-14T05:18:57.372Z,100.00
2023-04-14T05:21:24.246Z,100.00
2023-04-14T05:23:51.083Z,100.00
2023-04-14T05:28:47.659Z,100.00
2023-04-14T05:31:14.523Z,100.00
2023-04-14T05:33:41.413Z,100.00
2023-04-14T05:36:08.393Z,100.00
2023-04-14T05:38:41.580Z,100.00
2023-04-14T05:41:08.565Z,100.00
2023-04-14T05:43:35.603Z,100.00
2023-04-14T05:46:02.676Z,100.00
2023-04-14T05:48:30.921Z,100.00
2023-04-14T05:50:58.280Z,100.00
2023-04-14T05:53:25.285Z,100.00
2023-04-14T05:55:52.755Z,100.00
2023-04-14T05:58:20.027Z,100.00
2023-04-14T06:00:46.943Z,100.00
2023-04-14T06:03:15.083Z,100.00
2023-04-14T06:05:42.103Z,100.00
2023-04-14T06:08:08.925Z,100.00
2023-04-14T06:10:35.863Z,100.00
2023-04-14T06:13:02.766Z,100.00
2023-04-14T06:15:29.807Z,100.00
2023-04-14T06:17:56.873Z,100.00
2023-04-14T06:20:23.928Z,100.00
2023-04-14T06:22:50.812Z,100.00
2023-04-14T06:25:17.639Z,100.00
2023-04-14T06:27:44.536Z,100.00
2023-04-14T06:30:11.838Z,100.00
2023-04-14T06:32:38.764Z,100.00
2023-04-14T06:35:06.463Z,100.00
2023-04-14T06:37:33.286Z,100.00
2023-04-14T06:40:00.152Z,100.00
2023-04-14T06:42:27.265Z,100.00
2023-04-14T06:44:54.095Z,100.00
2023-04-14T06:47:21.778Z,100.00
2023-04-14T06:49:48.698Z,100.00
2023-04-14T06:52:15.488Z,100.00
2023-04-14T06:54:42.373Z,100.00
2023-04-14T06:57:09.327Z,100.00
2023-04-14T06:59:37.474Z,100.00
2023-04-14T07:02:04.561Z,100.00
2023-04-14T07:04:31.542Z,100.00
2023-04-14T07:07:01.736Z,100.00
2023-04-14T07:09:29.330Z,100.00
2023-04-14T07:11:57.524Z,100.00
2023-04-14T07:14:24.938Z,100.00
2023-04-14T07:16:52.371Z,100.00
2023-04-14T07:19:19.534Z,100.00
2023-04-14T07:21:47.091Z,100.00
2023-04-14T07:24:15.531Z,100.00
2023-04-14T07:26:44.160Z,100.00
2023-04-14T07:29:11.113Z,100.00
2023-04-14T07:31:39.677Z,100.00
2023-04-14T07:34:07.772Z,100.00
2023-04-14T07:36:34.875Z,100.00
2023-04-14T07:39:01.741Z,100.00
2023-04-14T07:41:28.644Z,100.00
2023-04-14T07:43:55.734Z,100.00
2023-04-14T07:46:22.812Z,100.00
2023-04-14T07:48:49.684Z,100.00
2023-04-14T07:51:16.664Z,100.00
2023-04-14T07:53:45.082Z,100.00
2023-04-14T07:56:12.962Z,100.00
2023-04-14T07:58:40.184Z,100.00
2023-04-14T08:01:07.713Z,100.00
2023-04-14T08:03:37.293Z,100.00
2023-04-14T08:06:07.975Z,100.00
2023-04-14T08:08:35.740Z,100.00
2023-04-14T08:11:02.637Z,100.00
2023-04-14T08:13:29.449Z,100.00
2023-04-14T08:15:56.419Z,100.00
2023-04-14T08:18:23.311Z,100.00
2023-04-14T08:20:50.221Z,100.00
2023-04-14T08:23:17.144Z,100.00
2023-04-14T08:25:44.632Z,100.00
2023-04-14T08:28:12.362Z,100.00
2023-04-14T08:30:39.201Z,100.00
2023-04-14T08:33:06.109Z,100.00
2023-04-14T08:35:36.914Z,100.00
2023-04-14T08:38:07.530Z,100.00
2023-04-14T08:40:40.810Z,100.00
2023-04-14T08:43:08.027Z,100.00
2023-04-14T08:45:35.606Z,100.00
2023-04-14T08:48:04.046Z,98.50
2023-04-14T08:50:45.361Z,98.31
2023-04-14T08:53:13.995Z,100.00
2023-04-14T08:55:41.872Z,98.57
2023-04-14T08:58:12.346Z,96.07
2023-04-14T09:00:42.205Z,98.11
2023-04-14T09:03:09.648Z,96.64
2023-04-14T09:05:38.039Z,94.69
2023-04-14T09:08:04.971Z,95.98
2023-04-14T09:10:32.547Z,96.59
2023-04-14T09:13:00.281Z,96.74
2023-04-14T09:15:28.975Z,97.34
2023-04-14T09:17:56.545Z,95.75
2023-04-14T09:20:38.393Z,92.81
2023-04-14T09:23:10.095Z,94.75
2023-04-14T09:25:40.064Z,93.88
2023-04-14T09:28:07.517Z,90.94
2023-04-14T09:30:34.831Z,89.27
2023-04-14T09:33:18.618Z,87.60
2023-04-14T09:35:49.160Z,88.77
2023-04-14T09:38:32.433Z,89.68
2023-04-14T09:40:59.506Z,86.35
2023-04-14T09:43:27.833Z,86.54
2023-04-14T09:45:55.894Z,83.68
2023-04-14T09:48:23.215Z,81.57
2023-04-14T09:51:11.630Z,81.66
2023-04-14T09:53:42.667Z,83.95
2023-04-14T09:56:12.772Z,82.22
2023-04-14T09:58:45.057Z,83.30
2023-04-14T10:01:19.834Z,79.99
2023-04-14T10:03:48.282Z,80.53
2023-04-14T10:06:21.113Z,78.53
2023-04-14T10:08:50.574Z,78.19
2023-04-14T10:11:20.088Z,74.08
2023-04-14T10:13:59.196Z,75.41
2023-04-14T10:16:26.644Z,78.04
2023-04-14T10:18:54.776Z,79.26
2023-04-14T10:21:24.820Z,77.75
2023-04-14T10:23:52.155Z,76.05
2023-04-14T10:26:20.020Z,75.36
2023-04-14T10:28:50.860Z,70.29
2023-04-14T10:31:32.671Z,69.17
2023-04-14T10:34:07.059Z,70.59
2023-04-14T10:36:36.742Z,70.21
2023-04-14T10:39:05.767Z,68.17
2023-04-14T10:41:48.996Z,68.16
2023-04-14T10:44:28.871Z,63.26
2023-04-14T10:46:57.584Z,62.05
2023-04-14T10:49:30.384Z,60.70
2023-04-14T10:52:02.081Z,58.16
2023-04-14T10:54:28.934Z,58.18
2023-04-14T10:57:11.169Z,58.16
2023-04-14T10:59:43.607Z,54.17
2023-04-14T11:02:28.165Z,50.95
2023-04-14T11:05:11.625Z,49.27
2023-04-14T11:07:44.959Z,45.89
2023-04-14T11:10:24.119Z,47.55
2023-04-14T11:13:01.489Z,48.71
2023-04-14T11:16:00.449Z,47.23
2023-04-14T11:18:30.138Z,45.03
2023-04-14T11:21:04.879Z,47.28
2023-04-14T11:23:32.244Z,44.99
2023-04-14T11:26:00.412Z,47.07
2023-04-14T11:28:36.042Z,45.39
2023-04-14T11:31:08.344Z,49.24
2023-04-14T11:33:38.428Z,51.72
2023-04-14T11:36:07.788Z,49.11
2023-04-14T11:38:36.492Z,49.18
2023-04-14T11:41:04.318Z,46.69
2023-04-14T11:43:31.546Z,48.25
2023-04-14T11:46:03.053Z,49.56
2023-04-14T11:48:30.467Z,45.73
2023-04-14T11:51:03.130Z,46.96
2023-04-14T11:53:30.170Z,45.02
2023-04-14T11:56:00.730Z,47.59
2023-04-14T11:58:28.991Z,47.82
2023-04-14T12:00:57.584Z,49.21
2023-04-14T12:03:29.646Z,49.11
2023-04-14T12:06:01.922Z,50.06
2023-04-14T12:08:33.133Z,49.26
2023-04-14T12:11:15.622Z,50.30
2023-04-14T12:13:47.319Z,50.80
2023-04-14T12:16:16.298Z,51.55
2023-04-14T12:18:44.532Z,50.00
2023-04-14T12:21:18.431Z,46.85
2023-04-14T12:23:50.091Z,47.78
2023-04-14T12:26:17.821Z,49.50
2023-04-14T12:28:45.007Z,46.93
2023-04-14T12:31:11.983Z,48.59
2023-04-14T12:33:39.008Z,50.19
2023-04-14T12:36:12.790Z,51.77
2023-04-14T12:38:39.871Z,51.03
2023-04-14T12:41:06.743Z,45.44
2023-04-14T12:43:36.440Z,43.71
2023-04-14T12:46:04.688Z,43.79
2023-04-14T12:48:44.596Z,44.72
2023-04-14T12:51:17.687Z,46.30
2023-04-14T12:53:46.923Z,45.76
2023-04-14T12:56:19.504Z,45.39
2023-04-14T12:58:47.687Z,45.10
2023-04-14T13:01:17.079Z,45.30
2023-04-14T13:03:55.276Z,45.39
2023-04-14T13:06:24.793Z,47.40
2023-04-14T13:08:58.422Z,44.53
2023-04-14T13:11:25.375Z,43.64
2023-04-14T13:13:53.716Z,46.71
2023-04-14T13:16:21.409Z,47.35
2023-04-14T13:18:49.105Z,47.17
2023-04-14T13:21:16.627Z,47.58
2023-04-14T13:23:43.780Z,45.78
2023-04-14T13:26:10.798Z,44.61
2023-04-14T13:28:37.777Z,44.55
2023-04-14T13:31:04.816Z,46.49
2023-04-14T13:33:32.820Z,46.56
2023-04-14T13:36:00.526Z,44.78
2023-04-14T13:38:28.262Z,45.22
2023-04-14T13:40:55.626Z,44.00
2023-04-14T13:43:23.477Z,43.60
2023-04-14T13:45:50.612Z,42.25
2023-04-14T13:48:17.507Z,39.36
2023-04-14T13:50:44.429Z,41.48
2023-04-14T13:53:12.292Z,43.07
2023-04-14T13:55:39.245Z,42.01
2023-04-14T13:58:06.289Z,44.18
2023-04-14T14:00:33.156Z,42.30
2023-04-14T14:03:00.443Z,43.41
2023-04-14T14:05:27.808Z,43.09
2023-04-14T14:07:56.355Z,43.25
2023-04-14T14:10:23.251Z,42.45
2023-04-14T14:12:50.068Z,42.15
2023-04-14T14:15:16.952Z,42.96
2023-04-14T14:17:43.768Z,41.30
2023-04-14T14:20:10.769Z,39.87
2023-04-14T14:22:37.678Z,38.32
2023-04-14T14:25:18.337Z,41.30
2023-04-14T14:27:46.935Z,42.81
2023-04-14T14:30:13.930Z,42.44
2023-04-14T14:32:40.772Z,42.06
2023-04-14T14:35:08.217Z,40.80
2023-04-14T14:37:35.166Z,41.94
2023-04-14T14:40:02.066Z,42.52
2023-04-14T14:42:28.933Z,41.83
2023-04-14T14:44:57.405Z,40.69
2023-04-14T14:47:24.942Z,40.20
2023-04-14T14:49:59.623Z,40.33
2023-04-14T14:52:29.492Z,40.49
2023-04-14T14:54:56.382Z,39.98
2023-04-14T14:57:23.247Z,39.96
2023-04-14T14:59:50.067Z,38.61
2023-04-14T15:02:17.145Z,39.69
2023-04-14T15:04:44.616Z,40.28
2023-04-14T15:07:12.033Z,39.41
2023-04-14T15:09:39.265Z,40.26
2023-04-14T15:12:06.056Z,41.25
2023-04-14T15:14:32.937Z,41.37
2023-04-14T15:16:59.838Z,39.41
2023-04-14T15:19:27.095Z,39.75
2023-04-14T15:21:54.052Z,38.89
2023-04-14T15:24:20.899Z,39.39
2023-04-14T15:26:47.753Z,40.67
2023-04-14T15:29:14.601Z,39.23
2023-04-14T15:31:41.448Z,39.70
2023-04-14T15:34:08.269Z,40.50
2023-04-14T15:36:35.061Z,38.11
2023-04-14T15:39:01.886Z,38.85
2023-04-14T15:41:28.870Z,38.69
2023-04-14T15:43:55.822Z,38.19
2023-04-14T15:46:22.812Z,37.85
2023-04-14T15:48:49.679Z,38.18
2023-04-14T15:51:16.998Z,37.69
2023-04-14T15:53:43.839Z,38.04
2023-04-14T15:56:10.637Z,39.95
2023-04-14T15:58:37.500Z,39.33
2023-04-14T16:01:08.263Z,38.51
2023-04-14T16:03:36.768Z,37.97
2023-04-14T16:06:07.216Z,38.55
2023-04-14T16:08:34.260Z,39.41
2023-04-14T16:11:01.157Z,38.82
2023-04-14T16:13:28.124Z,38.66
2023-04-14T16:15:54.983Z,38.16
2023-04-14T16:18:21.908Z,37.20
2023-04-14T16:20:50.298Z,36.69
2023-04-14T16:23:17.243Z,36.56
2023-04-14T16:25:49.492Z,37.23
2023-04-14T16:28:16.582Z,37.46
2023-04-14T16:30:43.660Z,37.20
2023-04-14T16:33:10.758Z,37.02
2023-04-14T16:35:37.769Z,37.20
2023-04-14T16:38:08.418Z,34.44
2023-04-14T16:40:36.249Z,35.94
2023-04-14T16:43:03.617Z,36.47
2023-04-14T16:45:34.613Z,36.93
2023-04-14T16:48:01.961Z,37.92
2023-04-14T16:50:29.425Z,38.25
2023-04-14T16:52:56.303Z,36.74
2023-04-14T16:55:23.142Z,36.33
2023-04-14T16:57:50.014Z,36.55
2023-04-14T17:00:17.201Z,35.99
2023-04-14T17:02:44.262Z,35.43
2023-04-14T17:05:13.322Z,35.80
2023-04-14T17:07:40.720Z,35.42
2023-04-14T17:10:08.028Z,35.74
2023-04-14T17:12:34.872Z,35.29
2023-04-14T17:15:03.533Z,34.90
2023-04-14T17:17:31.475Z,34.75
2023-04-14T17:19:58.348Z,35.31
2023-04-14T17:22:25.124Z,35.60
2023-04-14T17:24:52.388Z,35.17
2023-04-14T17:27:19.417Z,35.63
2023-04-14T17:29:46.363Z,37.67
2023-04-14T17:32:13.575Z,37.05
2023-04-14T17:34:40.864Z,36.99
2023-04-14T17:37:07.750Z,36.62
2023-04-14T17:39:34.579Z,38.49
2023-04-14T17:42:01.556Z,37.55
2023-04-14T17:44:34.317Z,38.90
2023-04-14T17:47:03.097Z,37.88
2023-04-14T17:49:31.435Z,37.90
2023-04-14T17:51:58.623Z,38.69
2023-04-14T17:54:25.850Z,40.31
2023-04-14T17:56:52.790Z,40.80
2023-04-14T17:59:20.664Z,42.32
2023-04-14T18:01:47.655Z,41.75
2023-04-14T18:04:15.327Z,42.66
2023-04-14T18:06:42.271Z,42.55
2023-04-14T18:09:09.595Z,42.92
2023-04-14T18:11:36.603Z,41.50
2023-04-14T18:14:03.738Z,43.29
2023-04-14T18:16:31.334Z,45.24
2023-04-14T18:18:58.846Z,45.17
2023-04-14T18:21:27.231Z,44.92
2023-04-14T18:28:53.898Z,45.12
2023-04-14T18:31:20.743Z,45.77
2023-04-14T18:33:47.929Z,46.25
2023-04-14T18:36:14.768Z,46.61
2023-04-14T18:38:41.599Z,46.11
2023-04-14T18:41:08.806Z,47.44
2023-04-14T18:43:35.614Z,46.83
2023-04-14T18:46:02.577Z,46.94
2023-04-14T18:48:29.436Z,47.56
2023-04-14T18:51:02.213Z,47.81
2023-04-14T18:53:29.450Z,47.89
2023-04-14T18:55:56.280Z,48.03
2023-04-14T18:58:23.811Z,48.24
2023-04-14T19:00:51.393Z,48.24
2023-04-14T19:03:18.567Z,48.69
2023-04-14T19:05:45.470Z,48.60
2023-04-14T19:08:12.339Z,48.72
2023-04-14T19:10:39.787Z,48.45
2023-04-14T19:13:06.616Z,49.09
2023-04-14T19:15:33.420Z,49.59
2023-04-14T19:18:01.058Z,49.67
2023-04-14T19:20:27.943Z,50.16
2023-04-14T19:22:54.819Z,50.52
2023-04-14T19:25:22.360Z,50.98
2023-04-14T19:27:49.287Z,51.08
2023-04-14T19:30:16.164Z,51.80
2023-04-14T19:32:43.016Z,51.85
2023-04-14T19:35:10.380Z,52.12
2023-04-14T19:37:38.368Z,52.25
2023-04-14T19:40:06.826Z,52.32
2023-04-14T19:42:33.759Z,52.26
2023-04-14T19:45:01.100Z,52.31
2023-04-14T19:47:28.178Z,53.03
2023-04-14T19:49:55.301Z,53.17
2023-04-14T19:52:22.549Z,53.59
2023-04-14T19:54:49.711Z,54.17
2023-04-14T19:57:16.839Z,54.41
2023-04-14T19:59:44.323Z,54.61
2023-04-14T20:02:13.139Z,56.02
2023-04-14T20:04:40.633Z,56.16
2023-04-14T20:07:07.677Z,56.91
2023-04-14T20:09:34.715Z,56.63
2023-04-14T20:12:04.482Z,57.99
2023-04-14T20:14:31.303Z,58.19
2023-04-14T20:16:59.358Z,59.56
2023-04-14T20:19:26.226Z,59.36
2023-04-14T20:21:53.024Z,60.36
2023-04-14T20:24:20.052Z,61.24
2023-04-14T20:26:46.951Z,62.06
2023-04-14T20:29:13.919Z,62.04
2023-04-14T20:31:42.682Z,61.37
2023-04-14T20:34:10.308Z,62.51
2023-04-14T20:36:37.743Z,62.25
2023-04-14T20:39:06.196Z,63.11
2023-04-14T20:41:34.572Z,63.86
2023-04-14T20:44:01.522Z,64.05
2023-04-14T20:46:28.836Z,64.18
2023-04-14T20:48:56.643Z,65.25
2023-04-14T20:51:23.721Z,66.21
2023-04-14T20:53:50.694Z,65.69
2023-04-14T20:56:17.777Z,65.67
2023-04-14T20:58:45.542Z,66.11
2023-04-14T21:01:12.587Z,66.83
2023-04-14T21:03:40.169Z,66.22
2023-04-14T21:06:07.131Z,67.23
2023-04-14T21:08:34.999Z,67.57
2023-04-14T21:11:14.774Z,68.51
2023-04-14T21:15:29.496Z,69.25
2023-04-14T21:16:30.411Z,69.95
2023-04-14T21:18:57.498Z,69.50
2023-04-14T21:21:24.526Z,70.90
2023-04-14T21:23:51.493Z,70.78
2023-04-14T21:26:18.531Z,70.68
2023-04-14T21:28:45.730Z,72.77
2023-04-14T21:31:12.611Z,72.65
2023-04-14T21:33:41.533Z,72.05
2023-04-14T21:36:11.844Z,72.10
2023-04-14T21:38:39.134Z,72.51
2023-04-14T21:41:07.957Z,72.41
2023-04-14T21:43:37.073Z,72.44
2023-04-14T21:46:05.153Z,73.16
2023-04-14T21:48:32.233Z,74.33
2023-04-14T21:50:59.107Z,75.36
2023-04-14T21:53:26.272Z,74.81
2023-04-14T21:56:10.513Z,75.47
2023-04-14T21:58:39.405Z,75.69
2023-04-14T22:01:07.867Z,75.18
2023-04-14T22:03:37.213Z,74.98
2023-04-14T22:06:04.693Z,75.28
2023-04-14T22:08:31.492Z,76.23
2023-04-14T22:10:58.336Z,77.25
2023-04-14T22:13:25.180Z,77.33
2023-04-14T22:15:52.125Z,76.83
2023-04-14T22:18:19.104Z,77.57
2023-04-14T22:20:45.888Z,77.37
2023-04-14T22:23:13.276Z,76.89
2023-04-14T22:25:40.214Z,77.70
2023-04-14T22:28:07.396Z,76.88
2023-04-14T22:30:34.404Z,76.77
2023-04-14T22:33:01.391Z,77.67
2023-04-14T22:35:29.263Z,77.59
2023-04-14T22:37:56.062Z,77.88
2023-04-14T22:40:23.332Z,77.80
2023-04-14T22:42:50.245Z,78.25
2023-04-14T22:45:17.193Z,77.71
2023-04-14T22:47:44.043Z,78.02
2023-04-14T22:50:11.035Z,78.48
2023-04-14T22:52:37.882Z,78.88
2023-04-14T22:55:05.096Z,79.55
2023-04-14T22:57:31.875Z,78.96
2023-04-14T22:59:59.105Z,79.66
2023-04-14T23:02:26.081Z,79.53
2023-04-14T23:04:53.259Z,78.80
2023-04-14T23:07:20.220Z,79.66
2023-04-14T23:09:47.016Z,80.02
2023-04-14T23:12:13.918Z,80.12
2023-04-14T23:14:40.856Z,80.80
2023-04-14T23:17:07.655Z,81.33
2023-04-14T23:19:35.775Z,81.61
2023-04-14T23:22:03.268Z,81.39
2023-04-14T23:24:30.076Z,81.77
2023-04-14T23:26:57.578Z,82.15
2023-04-14T23:29:24.474Z,82.13
2023-04-14T23:31:51.812Z,81.61
2023-04-14T23:34:18.721Z,81.09
2023-04-14T23:36:49.484Z,81.20
2023-04-14T23:39:16.371Z,81.25
2023-04-14T23:41:43.188Z,81.48
2023-04-14T23:44:10.011Z,81.86
2023-04-14T23:46:36.846Z,81.57
2023-04-14T23:49:23.327Z,82.33
2023-04-14T23:51:50.619Z,81.98
2023-04-14T23:54:17.454Z,82.37
2023-04-14T23:56:44.246Z,82.56
2023-04-14T23:59:11.079Z,82.88
